Time;durP1;ratioP1;P1;durP2;ratioP2;P2;SDS_P1;SDS_P2;PMS_P1;PMS_P2;Temp;Humidity;BMP_temperature;BMP_pressure;BME280_temperature;BME280_humidity;BME280_pressure;Samples;Min_cycle;Max_cycle;Signal;HPM_P1;HPM_P2
2021/06/01 00:01:32;;;;;;;4.25;2.50;;;13.80;99.90;;;;;;5093223;28;20023;-66
2021/06/01 00:04:37;;;;;;;3.40;2.42;;;13.80;99.90;;;;;;5094272;28;20369;-66
2021/06/01 00:07:03;;;;;;;9.25;2.47;;;13.80;99.90;;;;;;5094017;28;20020;-66
2021/06/01 00:09:29;;;;;;;6.72;2.58;;;13.60;99.90;;;;;;5093733;28;20374;-66
2021/06/01 00:11:54;;;;;;;3.67;2.30;;;13.50;99.90;;;;;;5094258;28;20095;-66
2021/06/01 00:14:20;;;;;;;7.40;2.83;;;13.50;99.90;;;;;;5093660;28;20039;-66
2021/06/01 00:16:47;;;;;;;8.10;2.50;;;13.40;99.90;;;;;;5094191;28;20085;-66
2021/06/01 00:19:13;;;;;;;3.60;2.42;;;13.40;99.90;;;;;;5094176;28;20103;-66
2021/06/01 00:21:40;;;;;;;9.73;2.63;;;13.40;99.90;;;;;;5094176;28;20516;-66
2021/06/01 00:24:06;;;;;;;5.07;2.40;;;13.50;99.90;;;;;;5093781;28;20040;-66
2021/06/01 00:26:33;;;;;;;3.70;2.10;;;13.50;99.90;;;;;;5093783;28;20458;-66
2021/06/01 00:28:59;;;;;;;5.97;2.58;;;13.60;99.90;;;;;;5093553;28;20463;-66
2021/06/01 00:31:25;;;;;;;6.75;2.67;;;13.50;99.90;;;;;;5094076;28;20036;-66
2021/06/01 00:33:50;;;;;;;4.03;2.00;;;13.40;99.90;;;;;;5093513;28;20028;-66
2021/06/01 00:36:16;;;;;;;4.65;2.10;;;13.30;99.90;;;;;;5093498;28;20036;-66
2021/06/01 00:38:41;;;;;;;3.50;2.25;;;13.20;99.90;;;;;;5093977;28;20031;-66
2021/06/01 00:41:07;;;;;;;4.63;2.28;;;13.10;99.90;;;;;;5093712;28;20020;-66
2021/06/01 00:43:33;;;;;;;5.47;2.55;;;12.90;99.90;;;;;;5093681;28;20035;-66
2021/06/01 00:45:59;;;;;;;4.43;2.35;;;12.80;99.90;;;;;;5095103;28;20391;-66
2021/06/01 00:48:25;;;;;;;2.28;2.08;;;12.70;99.90;;;;;;5096270;28;20024;-66
2021/06/01 00:50:51;;;;;;;3.63;2.15;;;12.50;99.90;;;;;;5097723;28;20020;-66
2021/06/01 00:53:16;;;;;;;5.88;2.10;;;12.40;99.90;;;;;;5097382;28;20020;-66
2021/06/01 00:55:42;;;;;;;2.78;2.00;;;12.30;99.90;;;;;;5097884;28;20024;-66
2021/06/01 00:58:09;;;;;;;4.63;2.50;;;12.30;99.90;;;;;;5097879;28;20028;-66
2021/06/01 01:00:51;;;;;;;4.07;2.10;;;12.20;99.90;;;;;;5096345;28;20058;-66
2021/06/01 01:03:17;;;;;;;6.25;2.72;;;12.20;99.90;;;;;;5097754;28;20453;-66
2021/06/01 01:05:47;;;;;;;4.43;2.58;;;12.20;99.90;;;;;;5097611;28;20024;-66
2021/06/01 01:11:13;;;;;;;3.80;2.45;;;12.20;99.90;;;;;;5071611;28;20415;-66
2021/06/01 01:13:47;;;;;;;3.33;2.30;;;12.20;99.90;;;;;;5071367;28;20028;-66
2021/06/01 01:16:14;;;;;;;5.63;2.42;;;12.00;99.90;;;;;;5071366;28;20017;-66
2021/06/01 01:18:44;;;;;;;4.05;2.53;;;11.90;99.90;;;;;;5071248;28;20024;-66
2021/06/01 01:21:21;;;;;;;8.70;3.08;;;11.80;99.90;;;;;;5070915;28;20021;-66
2021/06/01 01:24:05;;;;;;;3.40;2.30;;;11.80;99.90;;;;;;5071167;28;20095;-66
2021/06/01 01:26:49;;;;;;;4.85;2.58;;;11.80;99.90;;;;;;5070824;28;20074;-66
2021/06/01 01:29:21;;;;;;;4.35;2.75;;;11.90;99.90;;;;;;5070954;28;20029;-65
2021/06/01 01:31:52;;;;;;;3.80;2.40;;;12.00;99.90;;;;;;5071006;28;20344;-66
2021/06/01 01:34:19;;;;;;;5.25;2.47;;;11.90;99.90;;;;;;5052474;28;20024;-66
2021/06/01 01:36:46;;;;;;;3.75;2.60;;;11.70;99.90;;;;;;5069958;28;20021;-66
2021/06/01 01:39:14;;;;;;;3.25;2.50;;;11.60;99.90;;;;;;5069062;28;20025;-66
2021/06/01 01:41:40;;;;;;;6.53;2.80;;;11.60;99.90;;;;;;5069120;28;20462;-66
2021/06/01 01:44:11;;;;;;;3.75;2.60;;;11.50;99.90;;;;;;5070781;28;20459;-66
2021/06/01 01:49:17;;;;;;;5.65;2.70;;;11.30;99.90;;;;;;5070257;28;20031;-66
2021/06/01 01:51:46;;;;;;;6.60;3.38;;;11.20;99.90;;;;;;5070523;28;20041;-66
2021/06/01 01:54:15;;;;;;;4.65;2.70;;;11.10;99.90;;;;;;5070510;28;20086;-66
2021/06/01 01:56:44;;;;;;;5.03;3.28;;;11.00;99.90;;;;;;5070520;28;20404;-66
2021/06/01 01:59:13;;;;;;;3.17;2.70;;;10.90;99.90;;;;;;5070419;28;20107;-66
2021/06/01 02:01:41;;;;;;;5.70;2.78;;;10.80;99.90;;;;;;5070384;28;20028;-66
2021/06/01 02:04:08;;;;;;;3.70;2.85;;;10.70;99.90;;;;;;5070368;28;20455;-66
2021/06/01 02:06:33;;;;;;;5.25;2.60;;;10.60;99.90;;;;;;5069999;28;20540;-66
2021/06/01 02:09:00;;;;;;;7.43;2.90;;;10.60;99.90;;;;;;5069829;28;20040;-66
2021/06/01 02:11:25;;;;;;;3.10;2.47;;;10.50;99.90;;;;;;5069613;28;20100;-66
2021/06/01 02:13:57;;;;;;;5.93;2.90;;;10.40;99.90;;;;;;5070089;28;20112;-66
2021/06/01 02:16:23;;;;;;;5.32;2.80;;;10.40;99.90;;;;;;5069827;28;20029;-66
2021/06/01 02:18:50;;;;;;;8.48;2.88;;;10.30;99.90;;;;;;5069717;28;20073;-66
2021/06/01 02:27:17;;;;;;;7.32;3.45;;;10.10;99.90;;;;;;5091890;28;20401;-66
2021/06/01 02:30:00;;;;;;;4.63;3.20;;;10.00;99.90;;;;;;5091307;28;20055;-66
2021/06/01 02:32:30;;;;;;;;;;;9.90;99.90;;;;;;5091949;28;20025;-64
2021/06/01 02:34:59;;;;;;;7.03;3.33;;;9.90;99.90;;;;;;5091467;28;19912;-64
2021/06/01 02:37:25;;;;;;;6.38;3.13;;;9.80;99.90;;;;;;5091433;28;20065;-66
2021/06/01 02:39:51;;;;;;;5.97;3.80;;;9.80;99.90;;;;;;5090185;28;20032;-66
2021/06/01 02:42:17;;;;;;;8.25;3.72;;;9.80;99.90;;;;;;5091335;28;20028;-66
2021/06/01 02:44:42;;;;;;;8.63;3.90;;;9.70;99.90;;;;;;5091186;28;20518;-66
2021/06/01 02:47:08;;;;;;;5.22;3.38;;;9.70;99.90;;;;;;5091223;28;20025;-66
2021/06/01 02:49:35;;;;;;;7.85;4.30;;;9.70;99.90;;;;;;5091190;28;20370;-66
2021/06/01 02:52:01;;;;;;;5.47;3.97;;;9.70;99.90;;;;;;5090608;28;20016;-66
2021/06/01 02:54:27;;;;;;;8.00;4.05;;;9.60;99.90;;;;;;5091104;28;20462;-65
2021/06/01 02:56:54;;;;;;;5.90;3.85;;;9.60;99.90;;;;;;5091068;28;20074;-66
2021/06/01 02:59:20;;;;;;;6.60;4.55;;;9.50;99.90;;;;;;5090997;28;20418;-66
2021/06/01 03:01:50;;;;;;;6.68;4.65;;;9.40;99.90;;;;;;5090949;28;20522;-66
2021/06/01 03:04:16;;;;;;;6.85;4.32;;;9.40;99.90;;;;;;5089433;28;20103;-66
2021/06/01 03:06:43;;;;;;;8.88;4.88;;;9.40;99.90;;;;;;5090807;28;20103;-66
2021/06/01 03:09:09;;;;;;;6.20;5.40;;;9.30;99.90;;;;;;5090825;28;20031;-66
2021/06/01 03:11:35;;;;;;;10.60;4.95;;;9.40;99.90;;;;;;5090751;28;20024;-66
2021/06/01 03:14:01;;;;;;;7.10;5.32;;;9.40;99.90;;;;;;5090705;28;20029;-66
2021/06/01 03:16:27;;;;;;;7.88;5.30;;;9.40;99.90;;;;;;5090664;28;20025;-66
2021/06/01 03:18:52;;;;;;;10.18;6.05;;;9.40;99.90;;;;;;5090316;28;20024;-63
2021/06/01 03:21:18;;;;;;;12.05;5.47;;;9.50;99.90;;;;;;5090598;28;20485;-65
2021/06/01 03:23:46;;;;;;;9.02;4.72;;;9.60;99.90;;;;;;5090262;28;20028;-66
2021/06/01 03:26:12;;;;;;;7.43;5.00;;;9.70;99.90;;;;;;5088372;28;20387;-66
2021/06/01 03:28:38;;;;;;;9.95;5.13;;;9.80;99.90;;;;;;5090145;28;20025;-66
2021/06/01 03:31:05;;;;;;;7.43;4.82;;;9.90;99.90;;;;;;5089130;28;20027;-66
2021/06/01 03:33:31;;;;;;;8.70;5.18;;;10.00;99.90;;;;;;5090323;28;20024;-66
2021/06/01 03:35:57;;;;;;;9.65;5.32;;;10.20;99.90;;;;;;5090014;28;20035;-66
2021/06/01 03:38:23;;;;;;;8.63;6.18;;;10.20;99.90;;;;;;5077526;28;20480;-66
2021/06/01 03:40:49;;;;;;;11.70;5.68;;;10.20;99.90;;;;;;5076743;28;20104;-66
2021/06/01 03:43:15;;;;;;;8.50;5.15;;;10.20;99.90;;;;;;5076669;28;20028;-66
2021/06/01 03:45:40;;;;;;;8.68;5.80;;;10.30;99.90;;;;;;5076572;28;20366;-66
2021/06/01 03:48:06;;;;;;;9.45;5.97;;;10.20;99.90;;;;;;5076304;28;20024;-66
2021/06/01 03:50:33;;;;;;;8.77;5.60;;;10.20;99.90;;;;;;5075991;28;20023;-66
2021/06/01 03:52:59;;;;;;;8.73;5.72;;;10.10;99.90;;;;;;5076251;28;20045;-66
2021/06/01 03:55:25;;;;;;;11.35;6.03;;;10.10;99.90;;;;;;5076199;28;20052;-66
2021/06/01 03:57:50;;;;;;;11.25;6.40;;;10.10;99.90;;;;;;5076424;28;20560;-66
2021/06/01 04:00:20;;;;;;;10.65;6.40;;;10.00;99.90;;;;;;5076399;28;20052;-66
2021/06/01 04:02:46;;;;;;;10.38;6.07;;;9.90;99.90;;;;;;5076339;28;20052;-66
2021/06/01 04:05:12;;;;;;;9.52;5.47;;;9.90;99.90;;;;;;5076279;28;20060;-66
2021/06/01 04:07:37;;;;;;;10.85;6.18;;;9.90;99.90;;;;;;5075993;28;20028;-66
2021/06/01 04:10:04;;;;;;;8.93;5.72;;;10.10;99.90;;;;;;5076202;28;20419;-66
2021/06/01 04:12:31;;;;;;;8.75;5.68;;;10.10;99.90;;;;;;5076121;28;20017;-66
2021/06/01 04:14:56;;;;;;;9.32;5.45;;;10.30;99.90;;;;;;5076131;28;20067;-66
2021/06/01 04:17:22;;;;;;;7.82;5.95;;;10.50;99.90;;;;;;5075530;28;20028;-66
2021/06/01 04:19:48;;;;;;;9.02;5.20;;;10.60;99.90;;;;;;5074656;28;20418;-66
2021/06/01 04:22:14;;;;;;;8.52;5.93;;;10.80;99.90;;;;;;5074513;28;20016;-66
2021/06/01 04:24:39;;;;;;;9.20;5.55;;;11.20;99.90;;;;;;5058019;28;20027;-66
2021/06/01 04:27:05;;;;;;;9.63;6.03;;;11.60;99.90;;;;;;5075089;28;20052;-66
2021/06/01 04:29:31;;;;;;;8.93;5.53;;;11.90;99.90;;;;;;5075532;28;20021;-66
2021/06/01 04:31:56;;;;;;;10.07;6.32;;;12.20;99.90;;;;;;5075793;28;20031;-66
2021/06/01 04:34:22;;;;;;;10.75;5.10;;;12.70;99.90;;;;;;5075702;28;20032;-66
2021/06/01 04:36:48;;;;;;;6.28;4.50;;;13.60;99.90;;;;;;5075702;28;20108;-67
2021/06/01 04:39:14;;;;;;;7.75;4.80;;;14.90;99.90;;;;;;5075625;28;20115;-66
2021/06/01 04:41:39;;;;;;;6.85;4.22;;;15.80;99.90;;;;;;5057390;28;20028;-66
2021/06/01 04:44:06;;;;;;;6.95;3.92;;;17.10;99.90;;;;;;5075248;28;20024;-65
2021/06/01 04:46:31;;;;;;;9.02;4.45;;;17.90;99.90;;;;;;5075134;28;20115;-67
2021/06/01 04:48:57;;;;;;;8.55;4.60;;;18.90;99.90;;;;;;5074199;28;20052;-65
2021/06/01 04:51:23;;;;;;;6.43;4.18;;;18.90;99.90;;;;;;5075389;28;20028;-66
2021/06/01 04:53:50;;;;;;;4.75;4.18;;;19.20;99.90;;;;;;5075330;28;20043;-66
2021/06/01 04:56:16;;;;;;;6.00;4.60;;;19.70;98.10;;;;;;5073465;28;20028;-66
2021/06/01 04:58:42;;;;;;;5.80;4.20;;;19.90;97.40;;;;;;5075188;28;20081;-67
2021/06/01 05:01:08;;;;;;;5.75;4.50;;;20.10;96.60;;;;;;5075182;28;20029;-66
2021/06/01 05:03:33;;;;;;;8.00;4.28;;;20.10;94.70;;;;;;5074566;28;20091;-66
2021/06/01 05:05:59;;;;;;;6.32;4.40;;;20.10;95.00;;;;;;5074992;28;20099;-66
2021/06/01 05:08:25;;;;;;;5.80;4.22;;;19.50;94.20;;;;;;5074965;28;20034;-66
2021/06/01 05:10:51;;;;;;;6.18;4.60;;;20.00;94.30;;;;;;5073823;28;20477;-66
2021/06/01 05:13:16;;;;;;;9.23;4.90;;;20.30;93.60;;;;;;5074395;28;20025;-66
2021/06/01 05:15:43;;;;;;;8.68;4.65;;;20.40;92.80;;;;;;5074875;28;20115;-67
2021/06/01 05:18:10;;;;;;;6.70;4.75;;;19.60;95.50;;;;;;5074853;28;20020;-67
2021/06/01 05:20:35;;;;;;;6.60;4.70;;;20.20;96.20;;;;;;5074509;28;20466;-67
2021/06/01 05:23:01;;;;;;;5.32;4.30;;;20.80;92.70;;;;;;5074665;28;20055;-67
2021/06/01 05:25:26;;;;;;;8.05;4.80;;;20.80;92.30;;;;;;5072889;28;20119;-66
2021/06/01 05:27:52;;;;;;;10.07;4.88;;;21.20;91.40;;;;;;5074330;28;20363;-67
2021/06/01 05:30:23;;;;;;;6.10;4.50;;;21.80;88.90;;;;;;5074306;28;20024;-67
2021/06/01 05:33:10;;;;;;;5.25;4.75;;;22.20;86.30;;;;;;5073169;28;20179;-67
2021/06/01 05:35:38;;;;;;;6.10;4.50;;;22.00;86.70;;;;;;5073835;28;20016;-67
2021/06/01 05:38:04;;;;;;;7.10;5.10;;;22.40;84.20;;;;;;5073336;28;20466;-67
2021/06/01 05:40:29;;;;;;;6.80;4.82;;;22.30;84.90;;;;;;5074442;28;20024;-67
2021/06/01 05:42:55;;;;;;;6.68;5.03;;;22.30;80.20;;;;;;5074265;28;20078;-67
2021/06/01 05:45:21;;;;;;;7.70;5.30;;;21.60;84.10;;;;;;5074205;28;20448;-67
2021/06/01 05:47:46;;;;;;;7.00;4.68;;;21.70;86.90;;;;;;5073995;28;20073;-66
2021/06/01 05:50:12;;;;;;;6.93;4.85;;;22.40;83.70;;;;;;5072516;28;20037;-67
2021/06/01 05:52:38;;;;;;;7.43;5.00;;;23.00;80.30;;;;;;5074243;28;20465;-67
2021/06/01 05:55:05;;;;;;;5.85;5.07;;;24.00;75.10;;;;;;5073805;28;20462;-67
2021/06/01 05:57:31;;;;;;;7.43;5.28;;;24.40;72.90;;;;;;5072647;28;20032;-67
2021/06/01 05:59:57;;;;;;;7.20;4.90;;;24.60;68.90;;;;;;5073229;28;20378;-66
2021/06/01 06:02:23;;;;;;;7.25;5.20;;;24.60;67.90;;;;;;5072209;28;20130;-66
2021/06/01 06:04:48;;;;;;;6.63;4.93;;;24.40;67.10;;;;;;5072901;28;20020;-66
2021/06/01 06:07:14;;;;;;;8.18;5.32;;;24.50;65.80;;;;;;5073576;28;20030;-66
2021/06/01 06:09:40;;;;;;;6.72;4.95;;;24.40;70.90;;;;;;5082293;28;20062;-66
2021/06/01 06:12:06;;;;;;;6.00;4.97;;;24.20;67.10;;;;;;5076598;28;20028;-66
2021/06/01 06:14:31;;;;;;;7.45;4.88;;;25.00;66.10;;;;;;5071531;28;20089;-67
2021/06/01 06:17:05;;;;;;;6.00;4.40;;;24.70;66.60;;;;;;5071488;28;20032;-66
2021/06/01 06:19:31;;;;;;;6.63;5.10;;;24.90;65.50;;;;;;5073831;28;20405;-67
2021/06/01 06:21:56;;;;;;;5.55;4.47;;;25.20;62.30;;;;;;5071356;28;20031;-67
2021/06/01 06:24:22;;;;;;;8.40;4.60;;;25.90;60.40;;;;;;5073007;28;20077;-67
2021/06/01 06:26:47;;;;;;;9.00;4.90;;;25.40;61.20;;;;;;5072678;28;20048;-67
2021/06/01 06:29:13;;;;;;;6.07;4.22;;;25.70;62.00;;;;;;5073713;28;20343;-67
2021/06/01 06:31:39;;;;;;;6.20;4.55;;;25.90;59.40;;;;;;5073150;28;20051;-67
2021/06/01 06:34:04;;;;;;;6.93;4.65;;;25.50;59.70;;;;;;5073676;28;20028;-67
2021/06/01 06:36:30;;;;;;;7.00;4.22;;;24.80;61.60;;;;;;5072663;28;20047;-67
2021/06/01 06:38:55;;;;;;;5.53;4.93;;;25.80;60.80;;;;;;5072389;28;20029;-67
2021/06/01 06:41:21;;;;;;;5.10;4.32;;;26.70;57.60;;;;;;5072163;28;20044;-67
2021/06/01 06:43:50;;;;;;;7.57;4.55;;;26.20;59.40;;;;;;5063067;28;20032;-67
2021/06/01 06:46:23;;;;;;;5.63;4.25;;;26.30;59.30;;;;;;5071606;28;20020;-67
2021/06/01 06:48:48;;;;;;;6.95;3.70;;;26.30;56.70;;;;;;5071430;28;20106;-67
2021/06/01 06:51:14;;;;;;;5.90;4.00;;;26.50;55.10;;;;;;5071515;28;20055;-67
2021/06/01 06:54:03;;;;;;;7.13;4.20;;;26.70;54.00;;;;;;5071742;28;20105;-67
2021/06/01 06:56:30;;;;;;;7.28;4.18;;;26.20;54.70;;;;;;5071458;28;20024;-67
2021/06/01 06:58:57;;;;;;;6.78;4.00;;;26.50;53.90;;;;;;5051609;28;20075;-66
2021/06/01 07:01:23;;;;;;;6.35;3.88;;;26.30;55.50;;;;;;5069995;28;20066;-67
2021/06/01 07:03:49;;;;;;;8.52;4.00;;;26.20;54.00;;;;;;5070597;28;20036;-68
2021/06/01 07:06:16;;;;;;;6.20;3.47;;;26.50;56.20;;;;;;5070649;28;20028;-67
2021/06/01 07:08:42;;;;;;;4.65;3.42;;;27.60;52.50;;;;;;5071356;28;20078;-67
2021/06/01 07:11:07;;;;;;;4.28;3.88;;;27.70;49.90;;;;;;5072061;28;20029;-67
2021/06/01 07:13:42;;;;;;;5.75;3.45;;;27.20;49.90;;;;;;5073074;28;20100;-67
2021/06/01 07:16:08;;;;;;;5.88;4.25;;;27.60;53.80;;;;;;5075178;28;20093;-67
2021/06/01 07:18:38;;;;;;;5.60;3.83;;;27.70;52.10;;;;;;5075326;28;20094;-67
2021/06/01 07:21:04;;;;;;;6.32;4.10;;;27.70;52.70;;;;;;5074740;28;20055;-67
2021/06/01 07:23:40;;;;;;;5.22;3.78;;;27.80;52.20;;;;;;5076141;28;20025;-67
2021/06/01 07:26:07;;;;;;;4.60;3.50;;;26.80;53.40;;;;;;5072630;28;20397;-67
2021/06/01 07:28:33;;;;;;;5.13;3.30;;;26.60;54.00;;;;;;5075524;28;20492;-67
2021/06/01 07:31:00;;;;;;;6.65;3.80;;;26.90;54.60;;;;;;5075525;28;20032;-67
2021/06/01 07:33:26;;;;;;;5.82;3.80;;;27.70;52.00;;;;;;5072769;28;20020;-67
2021/06/01 07:35:52;;;;;;;8.77;3.75;;;27.70;49.90;;;;;;5074927;28;20040;-67
2021/06/01 07:38:17;;;;;;;6.40;4.10;;;27.70;52.20;;;;;;5075406;28;20035;-67
2021/06/01 07:40:43;;;;;;;8.15;4.07;;;27.30;53.00;;;;;;5072596;28;20047;-67
2021/06/01 07:43:08;;;;;;;4.13;3.65;;;27.10;52.20;;;;;;5074395;28;20028;-67
2021/06/01 07:45:34;;;;;;;5.40;3.80;;;27.80;51.10;;;;;;5074864;28;20024;-67
2021/06/01 07:48:00;;;;;;;7.60;3.20;;;28.00;51.70;;;;;;5075107;28;20024;-67
2021/06/01 07:50:26;;;;;;;4.15;3.60;;;28.40;48.70;;;;;;5075476;28;20033;-67
2021/06/01 07:52:52;;;;;;;6.05;3.55;;;27.70;47.60;;;;;;5074946;28;20024;-67
2021/06/01 07:55:17;;;;;;;5.75;3.72;;;28.10;47.70;;;;;;5073524;28;20074;-67
2021/06/01 07:57:43;;;;;;;4.05;3.50;;;28.00;50.80;;;;;;5075940;28;20032;-67
2021/06/01 08:00:11;;;;;;;6.03;3.88;;;27.50;51.60;;;;;;5074248;28;20024;-67
2021/06/01 08:02:36;;;;;;;5.15;3.45;;;27.40;53.00;;;;;;5073475;28;20428;-67
2021/06/01 08:05:03;;;;;;;5.65;3.85;;;27.80;50.70;;;;;;5052831;28;20044;-67
2021/06/01 08:07:29;;;;;;;6.55;3.80;;;28.10;49.90;;;;;;5072498;28;20024;-67
2021/06/01 08:09:54;;;;;;;3.53;3.22;;;28.10;51.10;;;;;;5075050;28;20023;-67
2021/06/01 08:12:20;;;;;;;5.97;3.70;;;27.70;51.00;;;;;;5073603;28;20032;-67
2021/06/01 08:14:45;;;;;;;7.63;4.05;;;27.90;49.80;;;;;;5074972;28;20028;-67
2021/06/01 08:17:12;;;;;;;5.68;3.38;;;27.40;50.30;;;;;;5074754;28;20077;-67
2021/06/01 08:19:41;;;;;;;9.15;3.85;;;27.80;50.70;;;;;;5075700;28;20096;-67
2021/06/01 08:24:48;;;;;;;5.93;3.38;;;28.30;49.70;;;;;;5069923;28;20373;-66
2021/06/01 08:27:14;;;;;;;5.47;3.67;;;28.70;48.20;;;;;;5070467;28;20436;-66
2021/06/01 08:29:40;;;;;;;7.30;3.33;;;28.80;47.30;;;;;;5067433;28;20025;-66
2021/06/01 08:32:06;;;;;;;7.75;3.20;;;28.90;48.20;;;;;;5068402;28;20385;-66
2021/06/01 08:34:32;;;;;;;5.85;3.53;;;28.70;47.10;;;;;;5068213;28;20514;-66
2021/06/01 08:36:57;;;;;;;7.18;3.45;;;28.40;49.90;;;;;;5068418;28;20036;-66
2021/06/01 08:39:25;;;;;;;5.63;3.20;;;28.30;52.00;;;;;;5068437;28;20273;-66
2021/06/01 08:41:52;;;;;;;6.57;3.40;;;28.70;49.80;;;;;;5066456;28;20017;-66
2021/06/01 08:44:18;;;;;;;5.32;3.47;;;28.90;48.00;;;;;;5067845;28;20106;-66
2021/06/01 08:46:48;;;;;;;6.57;3.30;;;29.30;46.50;;;;;;5069634;28;20029;-66
2021/06/01 08:49:15;;;;;;;5.93;3.25;;;29.70;50.20;;;;;;5067586;28;20021;-66
2021/06/01 08:51:41;;;;;;;3.55;3.25;;;30.00;45.10;;;;;;5068012;28;20074;-66
2021/06/01 08:54:06;;;;;;;4.82;3.28;;;30.40;45.30;;;;;;5068592;28;20099;-66
2021/06/01 08:56:32;;;;;;;4.78;3.15;;;30.90;43.60;;;;;;5069256;28;20020;-66
2021/06/01 08:58:58;;;;;;;6.18;3.20;;;30.10;45.10;;;;;;5068564;28;20542;-66
2021/06/01 09:01:23;;;;;;;4.80;3.10;;;29.90;44.60;;;;;;5068476;28;20081;-66
2021/06/01 09:03:54;;;;;;;4.97;3.17;;;29.50;44.00;;;;;;5067031;28;20115;-66
2021/06/01 09:06:24;;;;;;;4.45;3.15;;;30.00;44.40;;;;;;5068086;28;20032;-66
2021/06/01 09:14:57;;;;;;;5.95;3.40;;;29.70;46.60;;;;;;5053041;28;20017;-66
2021/06/01 09:23:05;;;;;;;3.78;3.03;;;30.30;42.90;;;;;;5068014;28;20126;-66
2021/06/01 09:28:15;;;;;;;3.00;2.75;;;30.40;43.70;;;;;;5069928;28;20365;-67
2021/06/01 09:30:45;;;;;;;5.97;2.60;;;30.80;41.80;;;;;;5070574;28;20020;-67
2021/06/01 09:35:57;;;;;;;4.95;2.70;;;31.10;41.30;;;;;;5090472;28;20414;-66
2021/06/01 09:38:27;;;;;;;2.88;2.10;;;30.50;37.80;;;;;;5090226;28;20029;-66
2021/06/01 09:41:11;;;;;;;4.00;2.25;;;30.60;35.00;;;;;;5089391;28;20024;-66
2021/06/01 09:43:59;;;;;;;3.42;2.47;;;30.40;38.10;;;;;;5088896;28;20082;-66
2021/06/01 09:46:32;;;;;;;4.15;2.35;;;30.10;36.70;;;;;;5090388;28;20043;-66
2021/06/01 09:52:03;;;;;;;3.47;2.00;;;30.80;37.50;;;;;;5070304;28;20369;-66
2021/06/01 09:54:34;;;;;;;3.85;2.60;;;30.50;39.20;;;;;;5069990;28;20101;-66
2021/06/01 09:57:01;;;;;;;2.85;2.13;;;30.80;36.70;;;;;;5057309;28;20064;-66
2021/06/01 09:59:27;;;;;;;2.22;2.03;;;30.50;37.70;;;;;;5048947;28;20033;-66
2021/06/01 10:01:53;;;;;;;4.30;2.28;;;31.00;35.60;;;;;;5061873;28;20386;-66
2021/06/01 10:04:26;;;;;;;5.50;2.65;;;31.40;37.60;;;;;;5061702;28;20020;-66
2021/06/01 10:06:53;;;;;;;3.97;2.47;;;30.60;37.00;;;;;;5030576;28;20034;-66
2021/06/01 10:09:18;;;;;;;2.95;2.58;;;30.30;38.30;;;;;;5052687;28;20066;-66
2021/06/01 10:11:59;;;;;;;2.80;2.33;;;31.00;38.80;;;;;;5069480;28;20036;-66
2021/06/01 10:14:26;;;;;;;6.00;2.78;;;31.20;39.10;;;;;;5054135;28;20565;-66
2021/06/01 10:16:52;;;;;;;4.25;2.58;;;30.70;38.40;;;;;;5049654;28;20068;-66
2021/06/01 10:19:18;;;;;;;3.17;2.25;;;30.80;37.70;;;;;;5056133;28;20103;-66
2021/06/01 10:21:45;;;;;;;2.40;2.20;;;31.10;38.30;;;;;;5066715;28;20025;-66
2021/06/01 10:24:12;;;;;;;4.15;2.33;;;30.40;38.50;;;;;;5067714;28;20032;-66
2021/06/01 10:26:40;;;;;;;3.67;2.60;;;30.50;40.80;;;;;;5048935;28;20036;-66
2021/06/01 10:29:06;;;;;;;5.15;2.58;;;29.10;39.80;;;;;;5048616;28;20032;-66
2021/06/01 10:31:32;;;;;;;2.78;2.35;;;29.80;42.30;;;;;;5065408;28;20033;-66
2021/06/01 10:33:59;;;;;;;4.50;2.67;;;29.30;42.00;;;;;;5051163;28;20100;-66
2021/06/01 10:44:51;;;;;;;3.40;2.90;;;28.60;41.50;;;;;;5052907;28;20025;-66
2021/06/01 10:53:11;;;;;;;5.10;2.63;;;27.20;44.90;;;;;;5070626;28;20365;-66
2021/06/01 10:55:58;;;;;;;5.43;3.13;;;27.20;46.30;;;;;;5066303;28;20031;-66
2021/06/01 10:58:46;;;;;;;3.38;2.63;;;27.10;44.20;;;;;;5068566;28;20100;-66
2021/06/01 11:12:26;;;;;;;3.22;2.92;;;26.60;46.80;;;;;;5109775;27;20305;-74
2021/06/01 11:14:54;;;;;;;4.78;2.35;;;26.00;45.00;;;;;;5096514;28;20536;-74
2021/06/01 11:17:41;;;;;;;3.35;2.75;;;25.80;44.90;;;;;;5101468;28;20056;-74
2021/06/01 11:20:13;;;;;;;4.30;2.72;;;25.90;47.50;;;;;;5100911;28;20023;-74
2021/06/01 11:22:48;;;;;;;5.27;2.47;;;26.20;45.20;;;;;;5085423;28;20013;-74
2021/06/01 11:33:27;;;;;;;3.15;2.63;;;26.10;45.30;;;;;;5092580;28;20060;-74
2021/06/01 11:35:55;;;;;;;3.90;2.60;;;25.90;43.50;;;;;;5101549;28;20103;-74
2021/06/01 11:38:24;;;;;;;4.50;2.45;;;25.70;43.80;;;;;;5101376;28;20031;-74
2021/06/01 11:41:01;;;;;;;3.97;2.50;;;25.70;45.80;;;;;;5092865;28;20074;-74
2021/06/01 11:43:27;;;;;;;4.78;2.58;;;25.60;44.00;;;;;;5089750;28;20033;-74
2021/06/01 11:51:27;;;;;;;3.13;2.13;;;25.50;44.80;;;;;;5110977;28;20027;-75
2021/06/01 11:54:11;;;;;;;3.85;2.72;;;25.70;44.40;;;;;;5109807;28;20358;-76
2021/06/01 12:02:37;;;;;;;6.00;2.13;;;25.50;45.40;;;;;;5110186;28;20496;-75
2021/06/01 12:05:13;;;;;;;4.70;2.42;;;25.60;44.10;;;;;;5109434;28;20515;-75
2021/06/01 12:18:46;;;;;;;3.92;2.03;;;25.90;44.00;;;;;;5110252;28;20089;-75
2021/06/01 12:21:18;;;;;;;3.05;2.00;;;26.40;44.60;;;;;;5109774;28;20012;-75
2021/06/01 12:23:50;;;;;;;2.28;2.08;;;26.00;42.00;;;;;;5110783;28;20388;-75
2021/06/01 12:26:28;;;;;;;2.53;2.15;;;26.00;40.70;;;;;;5108565;28;20032;-74
2021/06/01 12:32:25;;;;;;;1.93;1.80;;;26.00;44.10;;;;;;5107017;28;20059;-76
2021/06/01 12:44:04;;;;;;;2.92;2.17;;;25.30;42.20;;;;;;5096657;28;20024;-75
2021/06/01 13:13:07;;;;;;;2.20;2.00;;;25.30;45.00;;;;;;5095532;28;20064;-75
2021/06/01 13:19:16;;;;;;;2.92;2.03;;;25.40;40.80;;;;;;5095798;28;20024;-75
2021/06/01 13:21:08;;;;;;;3.05;2.10;;;25.30;41.50;;;;;;5092902;28;20039;-75
2021/06/01 13:23:42;;;;;;;4.03;1.92;;;25.40;40.90;;;;;;5093485;28;20025;-75
2021/06/01 13:32:32;;;;;;;3.03;1.90;;;26.00;46.20;;;;;;5073841;28;20032;-75
2021/06/01 13:40:30;;;;;;;2.78;2.05;;;25.40;41.80;;;;;;5069878;28;20676;-74
2021/06/01 13:46:24;;;;;;;4.57;1.90;;;25.60;42.00;;;;;;5053205;28;20022;-74
2021/06/01 13:48:56;;;;;;;2.65;2.33;;;25.10;41.50;;;;;;5061121;28;20039;-74
2021/06/01 13:56:36;;;;;;;7.18;2.25;;;25.20;40.60;;;;;;5056301;28;20393;-74
2021/06/01 13:59:08;;;;;;;2.20;2.00;;;24.50;43.20;;;;;;5064944;28;20028;-74
2021/06/01 14:02:11;;;;;;;5.60;2.00;;;24.30;42.50;;;;;;5052637;28;20804;-74
2021/06/01 14:10:25;;;;;;;2.33;2.00;;;24.70;45.00;;;;;;5049610;28;20038;-74
2021/06/01 14:21:15;;;;;;;3.25;1.83;;;25.10;42.40;;;;;;5049018;28;20044;-74
2021/06/01 14:35:43;;;;;;;3.88;2.30;;;25.20;40.40;;;;;;5068603;28;20395;-74
2021/06/01 15:03:52;;;;;;;3.35;1.90;;;24.70;43.10;;;;;;5068307;28;20024;-76
2021/06/01 15:07:24;;;;;;;2.25;1.83;;;25.00;42.30;;;;;;5069787;28;20028;-75
2021/06/01 15:08:35;;;;;;;3.30;2.10;;;25.20;44.00;;;;;;5069125;28;20028;-75
2021/06/01 15:11:17;;;;;;;6.38;1.92;;;24.90;42.70;;;;;;5067821;28;20079;-76
2021/06/01 15:28:40;;;;;;;1.60;1.50;;;24.90;40.70;;;;;;5049693;28;20032;-76
2021/06/01 15:30:37;;;;;;;3.88;2.03;;;24.80;42.00;;;;;;5049332;28;20121;-75
2021/06/01 15:47:43;;;;;;;4.38;1.80;;;24.60;41.90;;;;;;5046860;28;20029;-76
2021/06/01 15:49:38;;;;;;;1.95;1.63;;;24.70;42.70;;;;;;5035926;28;20487;-76
2021/06/01 16:12:18;;;;;;;4.07;1.83;;;25.20;42.90;;;;;;5035507;28;20090;-76
2021/06/01 16:15:01;;;;;;;2.70;1.90;;;25.10;41.20;;;;;;5035492;28;20030;-76
2021/06/01 16:22:58;;;;;;;2.58;1.80;;;24.60;41.10;;;;;;5035345;28;20026;-76
2021/06/01 16:31:22;;;;;;;3.42;2.00;;;24.40;42.20;;;;;;5035015;28;20053;-76
2021/06/01 16:42:22;;;;;;;3.88;2.00;;;23.80;43.40;;;;;;5089687;28;20024;-74
2021/06/01 17:03:09;;;;;;;4.90;2.30;;;23.80;44.00;;;;;;5091445;28;20052;-74
2021/06/01 17:04:34;;;;;;;3.25;2.15;;;23.60;44.90;;;;;;5090307;28;20043;-76
2021/06/01 17:07:15;;;;;;;3.28;1.80;;;23.40;44.80;;;;;;5090975;28;20025;-76
2021/06/01 17:11:01;;;;;;;3.67;1.90;;;23.40;46.10;;;;;;5090952;28;20024;-76
2021/06/01 17:12:40;;;;;;;6.17;2.20;;;23.20;45.00;;;;;;5090132;28;20032;-76
2021/06/01 17:15:06;;;;;;;3.20;2.10;;;23.10;46.50;;;;;;5090770;28;20404;-76
2021/06/01 17:17:34;;;;;;;4.30;2.20;;;23.00;45.80;;;;;;5090781;28;20025;-75
2021/06/01 17:20:35;;;;;;;3.60;2.28;;;22.90;46.10;;;;;;5090512;28;20017;-76
2021/06/01 17:22:58;;;;;;;2.60;1.92;;;22.90;46.50;;;;;;5090041;28;20028;-76
2021/06/01 17:31:06;;;;;;;2.20;1.80;;;22.90;47.50;;;;;;5088791;28;20103;-76
2021/06/01 17:36:18;;;;;;;2.97;2.60;;;23.00;48.10;;;;;;5089521;28;20083;-76
2021/06/01 17:38:43;;;;;;;8.23;2.40;;;23.00;47.80;;;;;;5089857;28;20055;-76
2021/06/01 17:41:14;;;;;;;2.72;2.47;;;23.00;47.40;;;;;;5090055;28;20551;-75
2021/06/01 17:43:42;;;;;;;4.15;2.30;;;23.10;47.80;;;;;;5088631;28;20044;-76
2021/06/01 17:46:12;;;;;;;6.63;2.60;;;23.10;49.50;;;;;;5086558;28;20016;-75
2021/06/01 17:48:43;;;;;;;4.28;2.78;;;23.10;49.10;;;;;;5076677;28;20048;-75
2021/06/01 17:51:09;;;;;;;3.88;2.40;;;23.10;48.40;;;;;;5076142;28;20013;-76
2021/06/01 17:53:42;;;;;;;3.40;2.58;;;23.10;48.40;;;;;;5076424;28;20094;-75